createdAt,value
2023-02-15T00:00:42.593Z,97.35
2023-02-15T00:01:42.658Z,97.35
2023-02-15T00:02:42.589Z,97.26
2023-02-15T00:03:42.583Z,97.45
2023-02-15T00:04:42.584Z,97.26
2023-02-15T00:05:42.592Z,97.16
2023-02-15T00:06:42.626Z,97.26
2023-02-15T00:07:42.589Z,97.26
2023-02-15T00:08:42.597Z,97.35
2023-02-15T00:09:42.595Z,97.26
2023-02-15T00:10:42.593Z,96.97
2023-02-15T00:11:42.605Z,97.26
2023-02-15T00:12:42.601Z,97.16
2023-02-15T00:13:42.599Z,97.16
2023-02-15T00:14:42.599Z,97.26
2023-02-15T00:15:42.612Z,96.97
2023-02-15T00:16:42.690Z,97.45
2023-02-15T00:17:42.617Z,97.26
2023-02-15T00:18:42.614Z,97.35
2023-02-15T00:19:42.612Z,97.16
2023-02-15T00:20:42.609Z,97.73
2023-02-15T00:21:42.609Z,97.54
2023-02-15T00:22:42.649Z,97.73
2023-02-15T00:23:42.619Z,97.64
2023-02-15T00:24:42.613Z,97.92
2023-02-15T00:25:42.625Z,98.02
2023-02-15T00:26:42.624Z,97.92
2023-02-15T00:27:42.621Z,97.83
2023-02-15T00:28:42.631Z,98.30
2023-02-15T00:29:42.637Z,98.30
2023-02-15T00:30:42.661Z,97.83
2023-02-15T00:31:42.704Z,97.92
2023-02-15T00:32:42.633Z,97.73
2023-02-15T00:33:42.642Z,97.83
2023-02-15T00:34:42.638Z,98.30
2023-02-15T00:35:42.632Z,98.11
2023-02-15T00:36:42.631Z,98.21
2023-02-15T00:37:42.641Z,97.73
2023-02-15T00:38:42.658Z,98.96
2023-02-15T00:39:42.647Z,98.77
2023-02-15T00:40:42.645Z,98.11
2023-02-15T00:41:42.641Z,97.83
2023-02-15T00:42:42.653Z,98.21
2023-02-15T00:43:42.654Z,98.21
2023-02-15T00:44:42.652Z,98.21
2023-02-15T00:45:42.665Z,98.11
2023-02-15T00:46:42.663Z,97.92
2023-02-15T00:47:42.659Z,97.83
2023-02-15T00:48:42.658Z,97.64
2023-02-15T00:49:42.675Z,97.83
2023-02-15T00:50:42.656Z,98.21
2023-02-15T00:51:42.667Z,98.21
2023-02-15T00:52:42.657Z,98.02
2023-02-15T00:53:42.664Z,97.92
2023-02-15T00:54:42.682Z,97.73
2023-02-15T00:55:42.675Z,97.92
2023-02-15T00:56:42.663Z,97.92
2023-02-15T00:57:42.671Z,98.11
2023-02-15T00:58:42.667Z,97.35
2023-02-15T00:59:42.675Z,97.35
2023-02-15T01:00:42.668Z,97.26
2023-02-15T01:01:42.677Z,97.92
2023-02-15T01:02:42.673Z,97.35
2023-02-15T01:03:42.682Z,97.54
2023-02-15T01:04:42.741Z,97.16
2023-02-15T01:05:42.685Z,97.45
2023-02-15T01:06:42.686Z,97.45
2023-02-15T01:07:42.691Z,97.26
2023-02-15T01:08:42.691Z,97.64
2023-02-15T01:09:42.705Z,97.45
2023-02-15T01:10:42.708Z,97.92
2023-02-15T01:11:42.693Z,98.11
2023-02-15T01:12:42.691Z,98.11
2023-02-15T01:13:42.689Z,98.21
2023-02-15T01:14:42.693Z,97.92
2023-02-15T01:15:44.089Z,98.11
2023-02-15T01:16:42.696Z,98.21
2023-02-15T01:17:42.700Z,97.92
2023-02-15T01:18:42.701Z,97.83
2023-02-15T01:19:42.705Z,98.30
2023-02-15T01:20:42.701Z,97.73
2023-02-15T01:21:42.704Z,97.64
2023-02-15T01:22:42.715Z,97.92
2023-02-15T01:23:42.713Z,98.21
2023-02-15T01:24:42.706Z,97.73
2023-02-15T01:25:42.710Z,97.83
2023-02-15T01:26:42.742Z,98.02
2023-02-15T01:27:42.715Z,98.02
2023-02-15T01:28:42.731Z,98.30
2023-02-15T01:29:42.722Z,98.39
2023-02-15T01:30:42.805Z,98.39
2023-02-15T01:31:42.825Z,98.30
2023-02-15T01:32:42.820Z,98.30
2023-02-15T01:33:42.729Z,98.21
2023-02-15T01:34:42.730Z,97.83
2023-02-15T01:35:42.723Z,98.02
2023-02-15T01:36:42.727Z,97.92
2023-02-15T01:37:42.728Z,97.64
2023-02-15T01:38:42.930Z,97.87
2023-02-15T01:39:42.729Z,98.35
2023-02-15T01:40:42.734Z,98.21
2023-02-15T01:41:42.740Z,98.06
2023-02-15T01:42:42.760Z,98.25
2023-02-15T01:43:42.735Z,98.06
2023-02-15T01:44:42.743Z,98.06
2023-02-15T01:45:42.739Z,98.06
2023-02-15T01:46:42.753Z,98.16
2023-02-15T01:47:42.747Z,97.78
2023-02-15T01:48:42.738Z,97.87
2023-02-15T01:49:42.750Z,97.87
2023-02-15T01:50:42.749Z,97.78
2023-02-15T01:51:42.743Z,98.16
2023-02-15T01:52:42.742Z,98.06
2023-02-15T01:53:42.745Z,98.16
2023-02-15T01:54:42.753Z,97.68
2023-02-15T01:55:42.749Z,98.54
2023-02-15T01:56:42.759Z,98.72
2023-02-15T01:57:42.757Z,98.54
2023-02-15T01:58:42.770Z,98.16
2023-02-15T01:59:42.750Z,98.25
2023-02-15T02:00:42.754Z,98.35
2023-02-15T02:01:42.824Z,98.35
2023-02-15T02:02:42.831Z,98.35
2023-02-15T02:03:42.761Z,97.78
2023-02-15T02:04:42.769Z,98.16
2023-02-15T02:05:42.764Z,98.06
2023-02-15T02:06:42.771Z,98.72
2023-02-15T02:07:42.761Z,98.16
2023-02-15T02:08:42.761Z,98.63
2023-02-15T02:09:42.770Z,98.25
2023-02-15T02:10:42.770Z,98.82
2023-02-15T02:11:42.763Z,98.54
2023-02-15T02:12:42.775Z,98.39
2023-02-15T02:13:42.812Z,98.30
2023-02-15T02:14:42.816Z,98.68
2023-02-15T02:15:42.832Z,98.21
2023-02-15T02:16:42.777Z,98.39
2023-02-15T02:17:42.781Z,98.68
2023-02-15T02:18:42.774Z,98.58
2023-02-15T02:19:42.777Z,98.68
2023-02-15T02:20:42.774Z,98.68
2023-02-15T02:21:42.785Z,98.11
2023-02-15T02:22:42.788Z,97.73
2023-02-15T02:23:42.787Z,98.11
2023-02-15T02:24:42.778Z,98.30
2023-02-15T02:25:42.782Z,97.83
2023-02-15T02:26:42.791Z,97.97
2023-02-15T02:27:42.798Z,97.87
2023-02-15T02:28:42.798Z,98.35
2023-02-15T02:29:42.795Z,98.25
2023-02-15T02:30:42.917Z,97.97
2023-02-15T02:31:42.930Z,97.97
2023-02-15T02:32:42.801Z,97.78
2023-02-15T02:33:42.810Z,97.97
2023-02-15T02:34:42.807Z,98.35
2023-02-15T02:35:42.834Z,97.97
2023-02-15T02:36:42.796Z,97.78
2023-02-15T02:37:42.797Z,97.97
2023-02-15T02:38:42.797Z,97.97
2023-02-15T02:39:42.803Z,97.87
2023-02-15T02:40:42.806Z,97.87
2023-02-15T02:41:42.821Z,98.16
2023-02-15T02:42:42.826Z,97.59
2023-02-15T02:43:42.828Z,98.06
2023-02-15T02:44:42.813Z,97.97
2023-02-15T02:45:42.810Z,97.97
2023-02-15T02:46:42.883Z,98.16
2023-02-15T02:47:42.812Z,97.87
2023-02-15T02:48:42.807Z,97.87
2023-02-15T02:49:42.817Z,98.06
2023-02-15T02:50:42.818Z,98.72
2023-02-15T02:51:42.814Z,97.87
2023-02-15T02:52:42.855Z,98.63
2023-02-15T02:53:42.819Z,97.97
2023-02-15T02:54:42.820Z,98.82
2023-02-15T02:55:42.823Z,98.63
2023-02-15T02:56:42.823Z,98.63
2023-02-15T02:57:42.826Z,98.06
2023-02-15T02:58:42.829Z,98.54
2023-02-15T02:59:42.823Z,98.63
2023-02-15T03:00:42.830Z,97.68
2023-02-15T03:01:42.910Z,97.87
2023-02-15T03:02:42.946Z,98.16
2023-02-15T03:03:42.832Z,98.06
2023-02-15T03:04:42.833Z,98.06
2023-02-15T03:05:42.832Z,98.06
2023-02-15T03:06:42.839Z,98.16
2023-02-15T03:07:42.846Z,98.72
2023-02-15T03:08:42.837Z,98.25
2023-02-15T03:09:42.965Z,98.63
2023-02-15T03:10:42.837Z,98.44
2023-02-15T03:11:42.843Z,97.97
2023-02-15T03:12:42.836Z,98.25
2023-02-15T03:13:42.844Z,98.25
2023-02-15T03:14:42.838Z,98.44
2023-02-15T03:16:35.634Z,98.16
2023-02-15T03:17:35.399Z,98.16
2023-02-15T03:18:35.428Z,98.35
2023-02-15T03:19:35.400Z,98.63
2023-02-15T03:20:35.400Z,98.54
2023-02-15T03:21:35.416Z,98.63
2023-02-15T03:22:35.412Z,98.82
2023-02-15T03:23:35.405Z,98.63
2023-02-15T03:24:35.426Z,98.54
2023-02-15T03:25:35.409Z,98.72
2023-02-15T03:26:35.416Z,97.87
2023-02-15T03:27:35.415Z,98.06
2023-02-15T03:28:35.412Z,98.16
2023-02-15T03:29:35.425Z,97.68
2023-02-15T03:30:35.414Z,98.16
2023-02-15T03:31:35.633Z,98.25
2023-02-15T03:32:35.415Z,98.68
2023-02-15T03:33:35.426Z,98.01
2023-02-15T03:34:35.448Z,98.01
2023-02-15T03:35:35.418Z,98.63
2023-02-15T03:36:35.430Z,98.35
2023-02-15T03:37:35.426Z,98.35
2023-02-15T03:40:05.509Z,98.54
2023-02-15T03:45:39.724Z,98.16
2023-02-15T03:46:39.756Z,98.44
2023-02-15T03:47:39.749Z,98.72
2023-02-15T03:48:39.728Z,98.63
2023-02-15T03:49:39.738Z,98.25
2023-02-15T03:50:39.717Z,98.72
2023-02-15T03:51:39.797Z,98.91
2023-02-15T03:52:39.701Z,98.82
2023-02-15T03:53:39.704Z,98.54
2023-02-15T03:54:39.697Z,98.63
2023-02-15T03:55:39.704Z,98.35
2023-02-15T03:56:39.702Z,98.16
2023-02-15T04:00:05.536Z,98.25
2023-02-15T04:01:05.587Z,98.35
2023-02-15T04:02:05.537Z,99.01
2023-02-15T04:03:05.999Z,99.10
2023-02-15T04:04:05.548Z,98.91
2023-02-15T04:05:05.564Z,98.91
2023-02-15T04:06:05.547Z,98.82
2023-02-15T04:07:53.097Z,98.91
2023-02-15T04:08:53.096Z,99.01
2023-02-15T04:09:53.094Z,99.01
2023-02-15T04:10:53.116Z,98.63
2023-02-15T04:11:53.104Z,98.72
2023-02-15T04:12:53.099Z,98.25
2023-02-15T04:13:53.103Z,98.06
2023-02-15T04:14:53.096Z,98.54
2023-02-15T04:15:53.102Z,98.16
2023-02-15T04:16:53.150Z,98.44
2023-02-15T04:17:53.096Z,97.78
2023-02-15T04:18:53.095Z,98.16
2023-02-15T04:19:53.098Z,97.97
2023-02-15T04:20:53.117Z,98.06
2023-02-15T04:21:53.097Z,98.63
2023-02-15T04:22:53.104Z,97.87
2023-02-15T04:23:53.106Z,97.97
2023-02-15T04:24:53.099Z,98.01
2023-02-15T04:25:53.099Z,98.06
2023-02-15T04:26:53.107Z,97.54
2023-02-15T04:27:53.101Z,98.20
2023-02-15T04:28:53.106Z,97.82
2023-02-15T04:29:53.134Z,98.30
2023-02-15T04:30:53.130Z,98.20
2023-02-15T04:31:53.245Z,98.39
2023-02-15T04:32:53.102Z,97.92
2023-02-15T04:33:53.111Z,98.25
2023-02-15T04:34:53.108Z,98.25
2023-02-15T04:35:53.130Z,98.54
2023-02-15T04:36:53.130Z,98.44
2023-02-15T04:37:53.108Z,98.63
2023-02-15T04:38:53.116Z,98.35
2023-02-15T04:39:53.107Z,98.35
2023-02-15T04:40:53.115Z,98.72
2023-02-15T04:41:53.115Z,98.54
2023-02-15T04:42:53.112Z,98.63
2023-02-15T04:43:53.120Z,98.72
2023-02-15T04:44:53.112Z,98.72
2023-02-15T04:45:53.163Z,99.10
2023-02-15T04:46:53.136Z,98.91
2023-02-15T04:47:53.125Z,98.82
2023-02-15T04:48:53.124Z,98.91
2023-02-15T04:49:53.121Z,99.10
2023-02-15T04:50:53.118Z,98.82
2023-02-15T04:51:53.117Z,98.91
2023-02-15T04:52:53.152Z,98.91
2023-02-15T04:53:53.121Z,99.01
2023-02-15T04:54:53.119Z,99.01
2023-02-15T04:55:53.124Z,99.10
2023-02-15T04:56:53.122Z,98.91
2023-02-15T04:57:53.129Z,98.72
2023-02-15T04:58:53.126Z,98.91
2023-02-15T04:59:53.140Z,98.82
2023-02-15T05:00:53.152Z,98.82
2023-02-15T05:01:53.136Z,99.20
2023-02-15T05:02:53.131Z,99.10
2023-02-15T05:03:53.195Z,99.10
2023-02-15T05:04:53.136Z,99.10
2023-02-15T05:05:53.134Z,99.10
2023-02-15T05:06:53.138Z,99.01
2023-02-15T05:07:53.141Z,98.72
2023-02-15T05:08:53.164Z,98.44
2023-02-15T05:09:53.145Z,98.16
2023-02-15T05:10:53.145Z,98.25
2023-02-15T05:11:53.139Z,98.54
2023-02-15T05:12:54.562Z,98.72
2023-02-15T05:13:53.137Z,99.10
2023-02-15T05:14:53.144Z,98.72
2023-02-15T05:15:53.149Z,98.54
2023-02-15T05:16:53.235Z,99.96
2023-02-15T05:17:53.145Z,99.58
2023-02-15T05:18:53.151Z,99.39
2023-02-15T05:19:53.168Z,99.10
2023-02-15T05:20:53.164Z,99.48
2023-02-15T05:21:53.151Z,99.67
2023-02-15T05:22:53.155Z,99.77
2023-02-15T05:23:53.161Z,99.77
2023-02-15T05:24:53.179Z,99.58
2023-02-15T05:25:53.156Z,99.48
2023-02-15T05:26:53.158Z,99.58
2023-02-15T05:27:53.166Z,99.29
2023-02-15T05:28:53.166Z,99.01
2023-02-15T05:29:53.333Z,98.63
2023-02-15T05:30:53.340Z,99.48
2023-02-15T05:31:53.365Z,99.58
2023-02-15T05:32:53.269Z,99.86
2023-02-15T05:33:53.163Z,99.01
2023-02-15T05:34:53.173Z,99.67
2023-02-15T05:35:53.167Z,99.39
2023-02-15T05:36:53.174Z,99.58
2023-02-15T05:37:53.175Z,99.77
2023-02-15T05:38:53.171Z,99.77
2023-02-15T05:39:53.179Z,99.67
2023-02-15T05:40:53.192Z,99.77
2023-02-15T05:41:53.176Z,99.67
2023-02-15T05:42:53.183Z,99.77
2023-02-15T05:43:53.178Z,99.67
2023-02-15T05:44:53.185Z,99.67
2023-02-15T05:45:53.183Z,99.77
2023-02-15T05:46:53.182Z,99.77
2023-02-15T05:47:53.188Z,99.29
2023-02-15T05:48:53.191Z,99.39
2023-02-15T05:49:53.196Z,99.67
2023-02-15T05:50:53.192Z,99.29
2023-02-15T05:51:53.192Z,99.15
2023-02-15T05:52:53.194Z,99.05
2023-02-15T05:53:53.190Z,99.05
2023-02-15T05:54:53.187Z,98.86
2023-02-15T05:55:53.199Z,99.33
2023-02-15T05:56:53.216Z,99.62
2023-02-15T05:57:53.205Z,99.71
2023-02-15T05:58:53.202Z,99.62
2023-02-15T05:59:53.198Z,99.99
2023-02-15T06:00:53.212Z,99.90
2023-02-15T06:01:53.205Z,99.99
2023-02-15T06:02:53.197Z,99.99
2023-02-15T06:03:53.271Z,99.99
2023-02-15T06:04:53.199Z,99.99
2023-02-15T06:05:53.202Z,99.99
2023-02-15T06:06:53.207Z,99.99
2023-02-15T06:07:53.200Z,99.99
2023-02-15T06:08:53.210Z,99.99
2023-02-15T06:09:53.215Z,99.81
2023-02-15T06:10:53.212Z,99.99
2023-02-15T06:11:53.205Z,99.43
2023-02-15T06:12:53.229Z,99.99
2023-02-15T06:13:53.212Z,99.99
2023-02-15T06:14:53.209Z,99.99
2023-02-15T06:15:53.273Z,99.99
2023-02-15T06:16:53.208Z,99.99
2023-02-15T06:17:53.218Z,99.99
2023-02-15T06:18:53.858Z,99.99
2023-02-15T06:19:53.211Z,99.99
2023-02-15T06:20:53.213Z,99.99
2023-02-15T06:21:53.225Z,99.99
2023-02-15T06:22:53.224Z,99.99
2023-02-15T06:23:53.213Z,99.99
2023-02-15T06:24:53.222Z,99.99
2023-02-15T06:25:53.215Z,99.99
2023-02-15T06:26:53.220Z,99.99
2023-02-15T06:27:53.218Z,99.99
2023-02-15T06:28:53.250Z,99.99
2023-02-15T06:29:53.267Z,99.99
2023-02-15T06:30:53.320Z,99.99
2023-02-15T06:31:53.372Z,99.99
2023-02-15T06:32:53.223Z,99.99
2023-02-15T06:33:53.230Z,99.99
2023-02-15T06:34:53.260Z,99.99
2023-02-15T06:35:53.238Z,99.99
2023-02-15T06:36:53.226Z,99.99
2023-02-15T06:37:53.230Z,99.99
2023-02-15T06:38:54.258Z,99.99
2023-02-15T06:39:53.236Z,99.99
2023-02-15T06:40:53.234Z,99.99
2023-02-15T06:41:53.230Z,99.99
2023-02-15T06:42:53.243Z,99.99
2023-02-15T06:43:53.249Z,99.99
2023-02-15T06:44:53.255Z,99.99
2023-02-15T06:45:53.235Z,99.99
2023-02-15T06:46:53.244Z,99.99
2023-02-15T06:47:53.236Z,99.99
2023-02-15T06:48:53.246Z,99.99
2023-02-15T06:49:53.243Z,99.99
2023-02-15T06:50:53.237Z,99.99
2023-02-15T06:51:53.240Z,99.99
2023-02-15T06:52:53.242Z,99.99
2023-02-15T06:53:53.249Z,99.99
2023-02-15T06:54:53.243Z,99.99
2023-02-15T06:55:53.242Z,99.99
2023-02-15T06:56:53.243Z,99.99
2023-02-15T06:57:53.244Z,99.99
2023-02-15T06:58:53.262Z,99.99
2023-02-15T06:59:53.252Z,99.99
2023-02-15T07:00:53.277Z,99.99
2023-02-15T07:01:53.286Z,99.99
2023-02-15T07:02:53.249Z,99.99
2023-02-15T07:03:53.255Z,99.99
2023-02-15T07:04:53.284Z,99.99
2023-02-15T07:05:53.250Z,99.99
2023-02-15T07:06:54.183Z,99.99
2023-02-15T07:07:53.251Z,99.99
2023-02-15T07:08:53.259Z,99.99
2023-02-15T07:09:53.259Z,99.99
2023-02-15T07:10:53.254Z,99.99
2023-02-15T07:11:53.250Z,99.99
2023-02-15T07:12:53.251Z,99.99
2023-02-15T07:13:53.259Z,99.99
2023-02-15T07:14:53.252Z,99.99
2023-02-15T07:15:53.330Z,99.99
2023-02-15T07:16:53.285Z,99.99
2023-02-15T07:17:53.259Z,99.99
2023-02-15T07:18:53.256Z,99.99
2023-02-15T07:19:53.263Z,99.99
2023-02-15T07:20:53.256Z,99.99
2023-02-15T07:21:53.264Z,99.99
2023-02-15T07:22:53.265Z,99.99
2023-02-15T07:23:53.257Z,99.99
2023-02-15T07:24:53.259Z,99.99
2023-02-15T07:25:53.259Z,99.99
2023-02-15T07:26:53.274Z,99.99
2023-02-15T07:27:53.265Z,99.99
2023-02-15T07:28:53.283Z,99.99
2023-02-15T07:29:53.312Z,99.99
2023-02-15T07:30:53.282Z,99.99
2023-02-15T07:31:53.276Z,99.99
2023-02-15T07:32:53.295Z,99.99
2023-02-15T07:33:53.266Z,99.99
2023-02-15T07:34:53.280Z,99.99
2023-02-15T07:35:53.273Z,99.99
2023-02-15T07:36:53.271Z,99.99
2023-02-15T07:37:53.268Z,99.99
2023-02-15T07:38:53.279Z,99.99
2023-02-15T07:39:53.278Z,99.99
2023-02-15T07:40:53.280Z,99.99
2023-02-15T07:41:53.289Z,99.99
2023-02-15T07:42:54.103Z,99.99
2023-02-15T07:43:53.293Z,99.99
2023-02-15T07:44:53.284Z,99.99
2023-02-15T07:45:53.279Z,99.99
2023-02-15T07:46:53.304Z,99.99
2023-02-15T07:47:53.286Z,99.99
2023-02-15T07:48:53.307Z,99.99
2023-02-15T07:49:53.283Z,99.99
2023-02-15T07:50:53.290Z,99.99
2023-02-15T07:51:53.283Z,99.99
2023-02-15T07:52:53.291Z,99.99
2023-02-15T07:53:53.293Z,99.99
2023-02-15T07:54:53.293Z,99.99
2023-02-15T07:55:53.288Z,99.99
2023-02-15T07:56:53.293Z,99.99
2023-02-15T07:57:53.288Z,99.99
2023-02-15T07:58:53.335Z,99.99
2023-02-15T07:59:53.301Z,99.99
2023-02-15T08:00:53.301Z,99.99
2023-02-15T08:01:53.297Z,99.99
2023-02-15T08:02:53.329Z,99.99
2023-02-15T08:03:53.414Z,99.99
2023-02-15T08:04:53.314Z,99.99
2023-02-15T08:05:53.295Z,99.99
2023-02-15T08:06:53.304Z,99.99
2023-02-15T08:07:53.304Z,99.99
2023-02-15T08:08:53.298Z,99.99
2023-02-15T08:09:53.305Z,99.99
2023-02-15T08:10:53.302Z,99.99
2023-02-15T08:11:53.310Z,99.99
2023-02-15T08:12:53.308Z,99.99
2023-02-15T08:13:53.311Z,99.99
2023-02-15T08:14:53.316Z,99.99
2023-02-15T08:15:53.314Z,99.99
2023-02-15T08:16:53.453Z,99.99
2023-02-15T08:17:53.315Z,99.99
2023-02-15T08:18:53.313Z,99.81
2023-02-15T08:19:53.321Z,99.81
2023-02-15T08:20:53.339Z,99.99
2023-02-15T08:21:53.327Z,99.85
2023-02-15T08:22:53.315Z,99.85
2023-02-15T08:23:53.327Z,99.99
2023-02-15T08:24:53.321Z,99.99
2023-02-15T08:25:53.329Z,99.99
2023-02-15T08:26:53.348Z,99.99
2023-02-15T08:27:53.327Z,99.99
2023-02-15T08:28:53.326Z,99.99
2023-02-15T08:29:53.360Z,99.99
2023-02-15T08:30:53.357Z,99.99
2023-02-15T08:31:53.462Z,99.99
2023-02-15T08:32:53.325Z,99.99
2023-02-15T08:33:53.339Z,99.99
2023-02-15T08:34:53.331Z,99.99
2023-02-15T08:35:53.335Z,99.99
2023-02-15T08:36:53.409Z,99.99
2023-02-15T08:37:53.332Z,99.99
2023-02-15T08:38:53.358Z,99.99
2023-02-15T08:39:53.341Z,99.99
2023-02-15T08:40:53.340Z,99.99
2023-02-15T08:41:53.338Z,99.99
2023-02-15T08:42:53.344Z,99.99
2023-02-15T08:43:53.348Z,99.99
2023-02-15T08:44:53.337Z,99.99
2023-02-15T08:45:53.369Z,99.99
2023-02-15T08:46:53.351Z,99.99
2023-02-15T08:47:53.342Z,99.99
2023-02-15T08:48:53.347Z,99.99
2023-02-15T08:49:53.345Z,99.99
2023-02-15T08:50:53.343Z,99.67
2023-02-15T08:51:53.355Z,99.99
2023-02-15T08:52:53.381Z,99.99
2023-02-15T08:53:53.358Z,99.86
2023-02-15T08:54:53.356Z,99.77
2023-02-15T08:55:53.359Z,99.48
2023-02-15T08:56:53.362Z,99.58
2023-02-15T08:57:53.359Z,99.67
2023-02-15T08:58:53.356Z,99.96
2023-02-15T08:59:53.365Z,98.91
2023-02-15T09:00:53.417Z,98.91
2023-02-15T09:15:57.832Z,98.16
2023-02-15T09:16:57.853Z,97.78
2023-02-15T09:17:57.776Z,97.78
2023-02-15T09:18:57.774Z,98.16
2023-02-15T09:19:57.778Z,97.87
2023-02-15T09:20:57.780Z,97.97
2023-02-15T09:21:57.789Z,97.92
2023-02-15T09:22:59.898Z,97.35
2023-02-15T09:23:57.785Z,97.35
2023-02-15T09:24:57.782Z,97.54
2023-02-15T09:25:57.788Z,97.54
2023-02-15T09:26:57.796Z,97.45
2023-02-15T09:27:57.788Z,97.16
2023-02-15T09:28:57.799Z,97.54
2023-02-15T09:29:57.838Z,97.07
2023-02-15T09:30:57.884Z,97.26
2023-02-15T09:31:57.901Z,97.26
2023-02-15T09:32:57.797Z,97.07
2023-02-15T09:33:57.800Z,96.69
2023-02-15T09:34:57.798Z,96.59
2023-02-15T09:35:57.804Z,96.59
2023-02-15T09:36:57.799Z,96.41
2023-02-15T09:37:57.806Z,96.41
2023-02-15T09:38:57.805Z,95.98
2023-02-15T09:39:57.802Z,95.69
2023-02-15T09:40:57.808Z,95.69
2023-02-15T09:41:57.822Z,95.50
2023-02-15T09:42:57.810Z,96.07
2023-02-15T09:43:57.818Z,96.36
2023-02-15T09:44:57.813Z,96.45
2023-02-15T09:45:57.884Z,96.45
2023-02-15T09:46:57.822Z,95.79
2023-02-15T09:47:57.860Z,95.50
2023-02-15T09:48:57.826Z,96.07
2023-02-15T09:49:57.844Z,96.26
2023-02-15T09:50:57.823Z,96.26
2023-02-15T09:51:57.840Z,96.17
2023-02-15T09:52:57.834Z,96.07
2023-02-15T09:53:57.837Z,96.45
2023-02-15T09:54:57.831Z,96.55
2023-02-15T09:55:57.841Z,96.64
2023-02-15T09:56:57.844Z,96.64
2023-02-15T09:57:57.850Z,96.64
2023-02-15T09:58:57.846Z,96.55
2023-02-15T09:59:57.848Z,96.45
2023-02-15T10:00:57.866Z,96.17
2023-02-15T10:01:57.847Z,96.31
2023-02-15T10:02:57.857Z,96.55
2023-02-15T10:03:57.880Z,96.64
2023-02-15T10:04:57.982Z,96.64
2023-02-15T10:05:57.858Z,96.55
2023-02-15T10:06:57.878Z,96.59
2023-02-15T10:07:57.859Z,96.59
2023-02-15T10:26:00.333Z,94.56
2023-02-15T10:26:59.896Z,95.46
2023-02-15T10:27:59.897Z,94.42
2023-02-15T10:28:59.894Z,94.03
2023-02-15T10:29:59.965Z,94.32
2023-02-15T10:31:00.169Z,94.23
2023-02-15T10:32:00.081Z,94.42
2023-02-15T10:32:59.916Z,94.13
2023-02-15T10:33:59.912Z,94.23
2023-02-15T10:34:59.913Z,93.84
2023-02-15T10:35:59.917Z,93.80
2023-02-15T10:36:59.928Z,93.60
2023-02-15T10:37:59.924Z,93.89
2023-02-15T10:38:59.934Z,93.32
2023-02-15T10:39:59.929Z,92.66
2023-02-15T10:41:00.345Z,92.94
2023-02-15T10:41:59.963Z,92.94
2023-02-15T10:42:59.943Z,92.66
2023-02-15T10:43:59.945Z,92.47
2023-02-15T10:44:59.962Z,91.99
2023-02-15T10:46:00.025Z,92.47
2023-02-15T10:46:59.964Z,91.71
2023-02-15T10:47:59.967Z,91.89
2023-02-15T10:48:59.979Z,92.18
2023-02-15T10:49:59.969Z,92.09
2023-02-15T10:51:00.128Z,91.71
2023-02-15T10:51:59.983Z,91.80
2023-02-15T10:52:59.987Z,91.85
2023-02-15T10:53:59.984Z,91.09
2023-02-15T10:54:59.992Z,90.90
2023-02-15T10:55:59.994Z,90.94
2023-02-15T10:57:00.005Z,91.13
2023-02-15T10:58:01.358Z,91.23
2023-02-15T10:59:00.018Z,91.56
2023-02-15T11:00:00.016Z,90.80
2023-02-15T11:01:00.368Z,90.14
2023-02-15T11:02:00.026Z,90.33
2023-02-15T11:03:00.032Z,89.80
2023-02-15T11:04:00.046Z,89.42
2023-02-15T11:05:00.110Z,88.85
2023-02-15T11:06:00.050Z,87.90
2023-02-15T11:07:00.054Z,87.61
2023-02-15T11:08:00.069Z,87.42
2023-02-15T11:09:00.104Z,87.04
2023-02-15T11:10:00.122Z,87.18
2023-02-15T11:11:00.722Z,86.90
2023-02-15T11:12:00.114Z,86.42
2023-02-15T11:13:00.110Z,86.61
2023-02-15T11:14:00.144Z,86.13
2023-02-15T11:15:00.129Z,85.94
2023-02-15T11:16:00.224Z,86.04
2023-02-15T11:17:00.173Z,85.47
2023-02-15T11:18:00.147Z,85.18
2023-02-15T11:19:00.140Z,84.17
2023-02-15T11:20:00.146Z,84.27
2023-02-15T11:21:00.640Z,83.98
2023-02-15T11:22:00.149Z,83.70
2023-02-15T11:27:54.413Z,82.06
2023-02-15T12:07:32.487Z,71.34
2023-02-15T12:09:35.449Z,70.67
2023-02-15T12:18:28.498Z,69.82
2023-02-15T14:43:06.543Z,73.05
2023-02-15T14:44:06.474Z,73.33
2023-02-15T14:45:06.549Z,73.62
2023-02-15T14:46:06.535Z,73.62
2023-02-15T14:47:06.507Z,73.33
2023-02-15T14:48:06.509Z,73.62
2023-02-15T14:49:06.531Z,73.91
2023-02-15T14:50:06.531Z,73.91
2023-02-15T14:51:06.535Z,73.72
2023-02-15T14:52:06.549Z,74.01
2023-02-15T14:53:06.556Z,73.72
2023-02-15T14:54:06.569Z,74.10
2023-02-15T14:55:06.575Z,74.01
2023-02-15T14:56:06.582Z,73.81
2023-02-15T14:57:06.604Z,74.10
2023-02-15T14:58:06.600Z,73.24
2023-02-15T14:59:06.640Z,73.52
2023-02-15T15:00:06.613Z,74.01
2023-02-15T15:06:59.115Z,74.01
2023-02-15T15:07:59.123Z,74.01
2023-02-15T15:08:59.136Z,74.29
2023-02-15T15:09:59.148Z,74.29
2023-02-15T15:10:59.148Z,74.48
2023-02-15T15:11:59.159Z,74.29
2023-02-15T15:12:59.173Z,74.01
2023-02-15T15:13:59.185Z,74.19
2023-02-15T15:14:59.239Z,74.38
2023-02-15T15:15:59.216Z,74.48
2023-02-15T15:16:59.221Z,74.38
2023-02-15T15:17:59.223Z,74.38
2023-02-15T15:18:59.238Z,74.48
2023-02-15T15:19:59.248Z,74.29
2023-02-15T15:20:59.260Z,74.38
2023-02-15T15:21:59.262Z,74.48
2023-02-15T15:22:59.270Z,75.05
2023-02-15T15:23:59.286Z,75.01
2023-02-15T15:24:59.297Z,74.67
2023-02-15T15:25:59.310Z,74.77
2023-02-15T15:26:59.316Z,74.67
2023-02-15T15:27:59.336Z,74.54
2023-02-15T15:28:59.330Z,74.73
2023-02-15T15:29:59.402Z,75.01
2023-02-15T15:30:59.439Z,75.20
2023-02-15T15:31:59.462Z,75.30
2023-02-15T15:32:59.393Z,75.20
2023-02-15T15:33:59.368Z,75.59
2023-02-15T15:34:59.379Z,75.40
2023-02-15T15:35:59.508Z,75.49
2023-02-15T15:36:59.396Z,75.59
2023-02-15T15:37:59.408Z,75.87
2023-02-15T15:38:59.411Z,75.59
2023-02-15T15:39:59.426Z,75.68
2023-02-15T15:40:59.435Z,75.78
2023-02-15T15:41:59.434Z,75.59
2023-02-15T15:42:59.448Z,75.87
2023-02-15T15:43:59.448Z,75.87
2023-02-15T15:44:59.459Z,75.59
2023-02-15T15:45:59.554Z,76.16
2023-02-15T15:46:59.503Z,75.84
2023-02-15T15:48:06.991Z,75.87
2023-02-15T15:48:59.494Z,76.31
2023-02-15T15:49:59.514Z,76.40
2023-02-15T15:50:59.512Z,76.50
2023-02-15T15:51:59.517Z,76.59
2023-02-15T15:52:59.515Z,76.59
2023-02-15T15:53:59.524Z,76.50
2023-02-15T15:54:59.530Z,76.79
2023-02-15T15:55:59.864Z,77.07
2023-02-15T15:56:59.556Z,77.07
2023-02-15T15:57:59.561Z,77.55
2023-02-15T15:58:59.561Z,77.55
2023-02-15T15:59:59.570Z,77.64
2023-02-15T16:00:59.575Z,77.83
2023-02-15T16:01:59.633Z,78.50
2023-02-15T16:02:59.658Z,78.22
2023-02-15T16:03:59.605Z,78.27
2023-02-15T16:04:59.610Z,78.37
2023-02-15T16:05:59.613Z,78.65
2023-02-15T16:06:59.614Z,78.94
2023-02-15T16:07:59.631Z,79.22
2023-02-15T16:08:59.628Z,79.13
2023-02-15T16:09:59.660Z,79.41
2023-02-15T16:10:59.648Z,79.22
2023-02-15T16:11:59.648Z,79.80
2023-02-15T16:12:59.674Z,79.70
2023-02-15T16:13:59.669Z,79.41
2023-02-15T16:14:59.667Z,79.70
2023-02-15T16:15:59.727Z,79.60
2023-02-15T16:16:59.720Z,79.80
2023-02-15T16:17:59.686Z,80.08
2023-02-15T16:18:59.712Z,80.36
2023-02-15T16:19:59.699Z,80.08
2023-02-15T16:20:59.705Z,79.89
2023-02-15T16:21:59.722Z,80.55
2023-02-15T16:22:59.724Z,80.27
2023-02-15T16:23:59.724Z,80.36
2023-02-15T16:24:59.732Z,80.08
2023-02-15T16:25:59.774Z,80.27
2023-02-15T16:26:59.747Z,80.90
2023-02-15T16:27:59.754Z,80.99
2023-02-15T16:28:59.763Z,80.42
2023-02-15T16:29:59.795Z,80.90
2023-02-15T16:30:59.838Z,80.90
2023-02-15T16:31:59.909Z,80.80
2023-02-15T16:32:59.789Z,81.18
2023-02-15T16:33:59.779Z,81.28
2023-02-15T16:34:59.863Z,81.56
2023-02-15T16:35:59.817Z,81.37
2023-02-15T16:36:59.819Z,81.37
2023-02-15T16:37:59.804Z,81.28
2023-02-15T16:38:59.819Z,81.95
2023-02-15T16:39:59.841Z,81.85
2023-02-15T16:40:59.827Z,81.85
2023-02-15T16:41:59.848Z,82.23
2023-02-15T16:42:59.836Z,82.23
2023-02-15T16:43:59.846Z,82.32
2023-02-15T16:44:59.849Z,83.09
2023-02-15T16:45:59.849Z,82.48
2023-02-15T16:46:59.968Z,82.57
2023-02-15T16:47:59.859Z,83.42
2023-02-15T16:48:59.869Z,83.04
2023-02-15T16:49:59.888Z,83.23
2023-02-15T16:50:59.997Z,83.33
2023-02-15T16:51:59.898Z,83.62
2023-02-15T16:52:59.892Z,84.19
2023-02-15T16:53:59.891Z,83.71
2023-02-15T16:54:59.899Z,84.28
2023-02-15T16:55:59.939Z,83.71